createdAt,value
2017-09-29T00:00:02.950Z,28.63
2017-09-29T00:02:30.079Z,33.00
2017-09-29T00:04:56.693Z,34.20
2017-09-29T00:07:23.091Z,27.48
2017-09-29T00:09:49.452Z,25.08
2017-09-29T00:12:15.847Z,23.23
2017-09-29T00:14:42.234Z,27.10
2017-09-29T00:17:09.360Z,28.98
2017-09-29T00:19:35.730Z,25.48
2017-09-29T00:22:02.859Z,23.45
2017-09-29T00:24:30.623Z,23.00
2017-09-29T00:26:58.204Z,26.60
2017-09-29T00:29:24.592Z,24.08
2017-09-29T00:31:51.029Z,27.10
2017-09-29T00:34:17.543Z,22.33
2017-09-29T00:36:43.974Z,24.60
2017-09-29T00:39:10.402Z,27.40
2017-09-29T00:41:36.789Z,25.60
2017-09-29T00:44:03.279Z,25.35
2017-09-29T00:46:29.642Z,26.73
2017-09-29T00:48:56.793Z,25.73
2017-09-29T00:51:23.909Z,33.65
2017-09-29T00:53:50.324Z,28.83
2017-09-29T00:56:16.711Z,29.60
2017-09-29T00:58:43.110Z,22.58
2017-09-29T01:01:09.497Z,24.45
2017-09-29T01:03:35.873Z,28.73
2017-09-29T01:06:03.024Z,24.30
2017-09-29T01:08:29.481Z,25.83
2017-09-29T01:10:55.838Z,28.52
2017-09-29T01:13:22.949Z,20.42
2017-09-29T01:18:23.022Z,42.03
2017-09-29T01:20:49.440Z,23.62
2017-09-29T01:23:19.189Z,22.50
2017-09-29T01:25:46.543Z,21.52
2017-09-29T01:28:12.965Z,22.77
2017-09-29T01:30:39.374Z,21.40
2017-09-29T01:33:05.763Z,24.85
2017-09-29T01:35:32.987Z,23.67
2017-09-29T01:37:59.373Z,24.15
2017-09-29T01:40:25.804Z,20.75
2017-09-29T01:42:52.216Z,25.65
2017-09-29T01:45:18.620Z,26.52
2017-09-29T01:47:45.052Z,24.92
2017-09-29T01:50:11.535Z,35.75
2017-09-29T01:52:37.999Z,18.00
2017-09-29T01:55:04.584Z,27.35
2017-09-29T01:57:31.930Z,18.85
2017-09-29T01:59:58.323Z,21.65
2017-09-29T02:02:24.826Z,25.20
2017-09-29T02:04:51.252Z,20.00
2017-09-29T02:07:17.677Z,19.70
2017-09-29T02:09:44.823Z,27.05
2017-09-29T02:12:11.244Z,21.60
2017-09-29T02:14:37.632Z,21.60
2017-09-29T02:17:04.066Z,24.65
2017-09-29T02:19:30.507Z,28.67
2017-09-29T02:21:57.646Z,18.62
2017-09-29T02:24:24.167Z,20.27
2017-09-29T02:26:50.574Z,20.67
2017-09-29T02:29:16.978Z,22.20
2017-09-29T02:31:43.377Z,21.62
2017-09-29T02:34:10.591Z,25.30
2017-09-29T02:36:37.031Z,24.80
2017-09-29T02:39:04.563Z,24.75
2017-09-29T02:41:30.990Z,28.30
2017-09-29T02:43:57.396Z,19.15
2017-09-29T02:46:24.538Z,24.45
2017-09-29T02:48:51.669Z,26.52
2017-09-29T02:51:18.123Z,20.88
2017-09-29T02:53:44.539Z,19.80
2017-09-29T02:56:11.674Z,25.00
2017-09-29T02:58:48.490Z,22.83
2017-09-29T03:01:23.842Z,22.75
2017-09-29T03:03:53.183Z,22.23
2017-09-29T03:06:19.739Z,28.08
2017-09-29T03:08:46.080Z,38.50
2017-09-29T03:11:12.793Z,30.55
2017-09-29T03:13:39.161Z,37.40
2017-09-29T03:16:05.550Z,35.80
2017-09-29T03:18:31.922Z,30.27
2017-09-29T03:20:58.271Z,22.42
2017-09-29T03:23:25.574Z,27.10
2017-09-29T03:25:52.685Z,22.42
2017-09-29T03:28:19.069Z,22.77
2017-09-29T03:30:45.472Z,18.62
2017-09-29T03:33:11.868Z,20.10
2017-09-29T03:35:38.301Z,22.95
2017-09-29T03:38:04.685Z,27.48
2017-09-29T03:40:31.117Z,21.73
2017-09-29T03:42:58.446Z,15.52
2017-09-29T03:45:24.890Z,23.23
2017-09-29T03:47:51.321Z,21.87
2017-09-29T03:50:19.716Z,17.60
2017-09-29T03:52:49.964Z,17.62
2017-09-29T03:55:20.123Z,18.27
2017-09-29T03:57:49.211Z,16.40
2017-09-29T04:00:15.652Z,19.87
2017-09-29T04:02:42.083Z,16.90
2017-09-29T04:05:09.197Z,23.43
2017-09-29T04:07:35.567Z,18.93
2017-09-29T04:10:01.941Z,21.50
2017-09-29T04:12:28.342Z,14.77
2017-09-29T04:14:55.451Z,18.97
2017-09-29T04:17:21.860Z,12.50
2017-09-29T04:19:48.255Z,14.33
2017-09-29T04:22:15.374Z,15.93
2017-09-29T04:24:42.248Z,18.00
2017-09-29T04:27:08.647Z,13.77
2017-09-29T04:29:35.321Z,17.53
2017-09-29T04:32:01.707Z,18.77
2017-09-29T04:34:28.176Z,20.20
2017-09-29T04:36:54.588Z,18.73
2017-09-29T04:39:21.161Z,17.67
2017-09-29T04:41:47.544Z,18.33
2017-09-29T04:44:13.939Z,15.67
2017-09-29T04:46:40.343Z,17.87
2017-09-29T04:49:06.701Z,17.43
2017-09-29T04:51:33.218Z,17.73
2017-09-29T04:53:59.602Z,18.63
2017-09-29T04:56:26.783Z,18.90
2017-09-29T04:58:53.203Z,25.00
2017-09-29T05:01:20.384Z,16.73
2017-09-29T05:03:46.762Z,21.33
2017-09-29T05:06:13.919Z,16.50
2017-09-29T05:08:40.324Z,26.33
2017-09-29T05:11:06.721Z,16.73
2017-09-29T05:13:33.155Z,19.20
2017-09-29T05:15:59.577Z,19.50
2017-09-29T05:18:26.113Z,12.27
2017-09-29T05:20:53.370Z,13.83
2017-09-29T05:23:19.782Z,16.90
2017-09-29T05:25:46.249Z,16.93
2017-09-29T05:28:12.615Z,16.40
2017-09-29T05:30:39.835Z,12.90
2017-09-29T05:33:06.194Z,13.67
2017-09-29T05:35:33.461Z,13.57
2017-09-29T05:37:59.816Z,15.70
2017-09-29T05:40:26.275Z,18.23
2017-09-29T05:42:52.625Z,14.80
2017-09-29T05:45:18.986Z,24.60
2017-09-29T05:47:45.396Z,20.97
2017-09-29T05:50:12.566Z,20.83
2017-09-29T05:52:38.944Z,22.73
2017-09-29T05:55:05.339Z,17.57
2017-09-29T05:57:31.883Z,18.52
2017-09-29T05:59:58.213Z,19.27
2017-09-29T06:02:24.598Z,18.83
2017-09-29T06:04:51.752Z,26.08
2017-09-29T06:07:18.838Z,21.77
2017-09-29T06:09:45.194Z,23.30
2017-09-29T06:12:11.570Z,28.57
2017-09-29T06:14:37.940Z,21.57
2017-09-29T06:17:04.312Z,20.50
2017-09-29T06:19:31.855Z,21.70
2017-09-29T06:21:58.252Z,19.43
2017-09-29T06:24:24.922Z,16.13
2017-09-29T06:26:51.314Z,15.97
2017-09-29T06:29:17.726Z,16.57
2017-09-29T06:31:44.114Z,17.13
2017-09-29T06:34:10.607Z,18.00
2017-09-29T06:36:37.010Z,15.67
2017-09-29T06:39:03.403Z,24.10
2017-09-29T06:41:30.144Z,20.30
2017-09-29T06:43:56.502Z,19.87
2017-09-29T06:46:22.885Z,22.43
2017-09-29T06:48:49.319Z,20.47
2017-09-29T06:51:15.688Z,23.65
2017-09-29T06:53:42.736Z,20.63
2017-09-29T06:56:09.119Z,18.37
2017-09-29T06:58:35.441Z,18.97
2017-09-29T07:01:01.849Z,20.07
2017-09-29T07:03:28.542Z,19.83
2017-09-29T07:05:54.914Z,18.53
2017-09-29T07:08:21.297Z,19.00
2017-09-29T07:10:47.701Z,20.20
2017-09-29T07:13:14.092Z,22.50
2017-09-29T07:15:41.189Z,24.33
2017-09-29T07:18:07.567Z,23.57
2017-09-29T07:20:33.956Z,23.63
2017-09-29T07:23:00.365Z,18.00
2017-09-29T07:25:29.539Z,15.23
2017-09-29T07:27:58.303Z,19.43
2017-09-29T07:30:28.238Z,19.23
2017-09-29T07:32:54.724Z,16.43
2017-09-29T07:35:21.178Z,21.13
2017-09-29T07:37:47.528Z,22.23
2017-09-29T07:40:14.327Z,20.30
2017-09-29T07:42:40.709Z,21.23
2017-09-29T07:45:07.108Z,30.27
2017-09-29T07:47:33.513Z,20.90
2017-09-29T07:49:59.878Z,24.83
2017-09-29T07:52:27.089Z,17.40
2017-09-29T07:54:53.461Z,20.40
2017-09-29T07:57:19.813Z,14.17
2017-09-29T07:59:46.221Z,21.30
2017-09-29T08:02:12.583Z,14.13
2017-09-29T08:04:38.940Z,22.43
2017-09-29T08:07:05.274Z,17.43
2017-09-29T08:09:31.642Z,15.67
2017-09-29T08:11:58.070Z,14.83
2017-09-29T08:14:24.435Z,15.63
2017-09-29T08:16:50.816Z,19.70
2017-09-29T08:19:17.979Z,17.90
2017-09-29T08:21:44.355Z,18.00
2017-09-29T08:24:10.739Z,14.90
2017-09-29T08:26:37.111Z,18.17
2017-09-29T08:29:03.489Z,16.20
2017-09-29T08:31:30.618Z,16.13
2017-09-29T08:33:57.001Z,17.30
2017-09-29T08:36:23.334Z,17.77
2017-09-29T08:38:49.732Z,18.53
2017-09-29T08:41:16.841Z,16.73
2017-09-29T08:43:43.206Z,15.20
2017-09-29T08:46:10.301Z,22.23
2017-09-29T08:48:36.669Z,17.23
2017-09-29T08:51:03.807Z,18.70
2017-09-29T08:53:30.148Z,16.20
2017-09-29T08:55:57.229Z,15.27
2017-09-29T08:58:23.605Z,20.87
2017-09-29T09:00:50.922Z,22.20
2017-09-29T09:03:17.223Z,16.43
2017-09-29T09:05:43.917Z,19.07
2017-09-29T09:08:10.253Z,16.87
2017-09-29T09:10:36.628Z,19.37
2017-09-29T09:13:03.052Z,25.50
2017-09-29T09:15:29.420Z,21.23
2017-09-29T09:17:55.810Z,35.90
2017-09-29T09:20:22.195Z,33.73
2017-09-29T09:22:48.602Z,24.00
2017-09-29T09:25:14.964Z,18.20
2017-09-29T09:27:41.737Z,19.03
2017-09-29T09:30:08.093Z,20.87
2017-09-29T09:32:34.533Z,19.33
2017-09-29T09:35:00.958Z,17.10
2017-09-29T09:37:27.324Z,17.60
2017-09-29T09:39:53.762Z,22.43
2017-09-29T09:42:20.890Z,24.47
2017-09-29T09:44:47.277Z,21.30
2017-09-29T09:47:13.575Z,16.10
2017-09-29T09:49:39.961Z,18.17
2017-09-29T09:52:06.329Z,17.70
2017-09-29T09:54:33.488Z,15.37
2017-09-29T09:57:00.593Z,21.10
2017-09-29T09:59:27.260Z,21.80
2017-09-29T10:01:53.636Z,20.73
2017-09-29T10:04:20.028Z,18.60
2017-09-29T10:06:47.115Z,22.93
2017-09-29T10:09:13.495Z,20.20
2017-09-29T10:11:40.635Z,21.83
2017-09-29T10:14:06.965Z,17.40
2017-09-29T10:16:33.303Z,18.70
2017-09-29T10:18:59.630Z,16.60
2017-09-29T10:21:26.233Z,21.83
2017-09-29T10:23:52.614Z,16.63
2017-09-29T10:26:19.718Z,20.53
2017-09-29T10:28:46.093Z,14.90
2017-09-29T10:31:13.260Z,17.23
2017-09-29T10:33:39.627Z,17.50
2017-09-29T10:36:06.009Z,15.40
2017-09-29T10:38:32.354Z,15.37
2017-09-29T10:40:58.717Z,14.03
2017-09-29T10:43:25.079Z,15.50
2017-09-29T10:45:51.442Z,16.90
2017-09-29T10:48:17.836Z,15.73
2017-09-29T10:50:44.202Z,14.13
2017-09-29T10:53:17.960Z,17.00
2017-09-29T10:55:44.355Z,15.70
2017-09-29T10:58:10.752Z,15.00
2017-09-29T11:00:37.135Z,15.03
2017-09-29T11:03:03.473Z,25.60
2017-09-29T11:05:29.835Z,18.30
2017-09-29T11:07:56.927Z,24.07
2017-09-29T11:10:23.305Z,18.40
2017-09-29T11:12:50.431Z,16.53
2017-09-29T11:15:23.677Z,17.63
2017-09-29T11:17:50.028Z,16.90
2017-09-29T11:20:16.401Z,16.23
2017-09-29T11:22:43.498Z,18.57
2017-09-29T11:25:09.871Z,18.03
2017-09-29T11:27:42.867Z,18.27
2017-09-29T11:30:09.977Z,17.27
2017-09-29T11:32:36.384Z,14.10
2017-09-29T11:35:02.768Z,16.97
2017-09-29T11:37:29.157Z,19.17
2017-09-29T11:39:55.529Z,15.60
2017-09-29T11:42:21.944Z,13.43
2017-09-29T11:44:48.290Z,29.23
2017-09-29T11:47:15.736Z,23.90
2017-09-29T11:49:42.088Z,20.17
2017-09-29T11:52:08.491Z,22.83
2017-09-29T11:54:34.876Z,18.07
2017-09-29T11:57:01.297Z,22.00
2017-09-29T11:59:27.711Z,29.97
2017-09-29T12:01:54.081Z,18.67
2017-09-29T12:04:20.460Z,21.67
2017-09-29T12:06:47.590Z,19.70
2017-09-29T12:09:13.959Z,23.50
2017-09-29T12:11:40.380Z,22.60
2017-09-29T12:14:06.758Z,32.07
2017-09-29T12:16:33.125Z,17.23
2017-09-29T12:19:00.227Z,26.23
2017-09-29T12:21:26.635Z,18.83
2017-09-29T12:23:53.026Z,19.40
2017-09-29T12:26:20.147Z,20.20
2017-09-29T12:28:46.496Z,27.23
2017-09-29T12:31:12.861Z,23.10
2017-09-29T12:33:39.252Z,22.43
2017-09-29T12:36:05.708Z,25.40
2017-09-29T12:38:32.090Z,20.07
2017-09-29T12:40:58.458Z,23.43
2017-09-29T12:43:24.842Z,18.90
2017-09-29T12:45:51.248Z,20.27
2017-09-29T12:48:17.639Z,21.23
2017-09-29T12:50:44.864Z,17.07
2017-09-29T12:53:11.241Z,18.13
2017-09-29T12:55:37.601Z,18.80
2017-09-29T12:58:03.937Z,19.57
2017-09-29T13:00:30.361Z,15.23
2017-09-29T13:02:56.746Z,18.43
2017-09-29T13:05:23.842Z,19.93
2017-09-29T13:07:50.201Z,14.73
2017-09-29T13:10:16.553Z,13.90
2017-09-29T13:12:43.708Z,17.93
2017-09-29T13:15:10.831Z,16.43
2017-09-29T13:17:37.195Z,17.27
2017-09-29T13:20:04.279Z,16.27
2017-09-29T13:22:30.636Z,19.83
2017-09-29T13:24:57.004Z,14.17
2017-09-29T13:27:23.376Z,26.80
2017-09-29T13:29:49.750Z,19.47
2017-09-29T13:32:16.900Z,21.60
2017-09-29T13:34:43.357Z,16.50
2017-09-29T13:37:09.760Z,11.97
2017-09-29T13:39:36.909Z,12.33
2017-09-29T13:42:04.070Z,13.93
2017-09-29T13:44:30.427Z,13.90
2017-09-29T13:46:56.831Z,18.70
2017-09-29T13:49:23.191Z,26.50
2017-09-29T13:51:49.550Z,20.93
2017-09-29T13:54:15.927Z,19.87
2017-09-29T13:56:42.244Z,20.50
2017-09-29T13:59:09.350Z,24.33
2017-09-29T14:01:35.737Z,25.70
2017-09-29T14:04:02.784Z,22.03
2017-09-29T14:06:29.187Z,22.50
2017-09-29T14:09:04.410Z,26.23
2017-09-29T14:11:31.504Z,29.73
2017-09-29T14:13:57.896Z,24.63
2017-09-29T14:16:25.022Z,23.57
2017-09-29T14:18:52.151Z,29.40
2017-09-29T14:21:18.544Z,29.67
2017-09-29T14:23:44.912Z,22.07
2017-09-29T14:26:11.289Z,25.80
2017-09-29T14:28:37.671Z,30.57
2017-09-29T14:31:04.029Z,28.53
2017-09-29T14:33:30.517Z,22.87
2017-09-29T14:35:56.940Z,28.30
2017-09-29T14:38:23.325Z,28.70
2017-09-29T14:40:49.730Z,24.67
2017-09-29T14:43:16.159Z,25.80
2017-09-29T14:45:42.517Z,21.93
2017-09-29T14:48:08.951Z,24.13
2017-09-29T14:50:35.345Z,19.90
2017-09-29T14:53:02.110Z,21.60
2017-09-29T14:55:28.518Z,19.57
2017-09-29T14:57:54.887Z,25.10
2017-09-29T15:00:21.289Z,18.07
2017-09-29T15:02:47.635Z,22.17
2017-09-29T15:05:14.039Z,22.57
2017-09-29T15:07:40.420Z,17.80
2017-09-29T15:10:06.842Z,28.03
2017-09-29T15:12:33.939Z,22.43
2017-09-29T15:15:00.329Z,20.73
2017-09-29T15:17:27.420Z,18.63
2017-09-29T15:19:53.835Z,21.17
2017-09-29T15:22:20.264Z,18.37
2017-09-29T15:24:46.622Z,15.90
2017-09-29T15:27:13.410Z,18.40
2017-09-29T15:29:39.883Z,16.53
2017-09-29T15:32:06.291Z,22.93
2017-09-29T15:34:32.778Z,14.60
2017-09-29T15:36:59.316Z,13.43
2017-09-29T15:39:26.449Z,18.37
2017-09-29T15:41:52.834Z,10.63
2017-09-29T15:44:19.267Z,13.30
2017-09-29T15:46:45.621Z,12.50
2017-09-29T15:49:11.979Z,17.87
2017-09-29T15:51:38.349Z,16.87
2017-09-29T15:54:04.758Z,14.53
2017-09-29T15:56:31.922Z,14.80
2017-09-29T15:58:58.324Z,20.10
2017-09-29T16:01:24.668Z,20.03
2017-09-29T16:03:51.352Z,16.50
2017-09-29T16:06:17.723Z,18.47
2017-09-29T16:08:44.844Z,16.63
2017-09-29T16:11:11.205Z,19.13
2017-09-29T16:13:38.349Z,18.80
2017-09-29T16:16:04.760Z,20.23
2017-09-29T16:18:31.872Z,17.73
2017-09-29T16:20:58.331Z,18.57
2017-09-29T16:23:24.749Z,16.47
2017-09-29T16:25:51.169Z,17.60
2017-09-29T16:28:17.538Z,15.57
2017-09-29T16:30:43.929Z,14.20
2017-09-29T16:33:10.308Z,14.00
2017-09-29T16:35:36.801Z,16.23
2017-09-29T16:38:03.168Z,16.80
2017-09-29T16:40:29.544Z,13.03
2017-09-29T16:42:55.914Z,12.00
2017-09-29T16:45:22.314Z,20.10
2017-09-29T16:47:48.714Z,16.07
2017-09-29T16:50:15.168Z,17.00
2017-09-29T16:52:41.545Z,15.20
2017-09-29T16:55:07.942Z,21.83
2017-09-29T16:57:34.385Z,15.27
2017-09-29T17:00:00.779Z,14.83
2017-09-29T17:02:27.149Z,16.17
2017-09-29T17:04:53.529Z,18.97
2017-09-29T17:07:19.922Z,19.90
2017-09-29T17:09:47.082Z,15.97
2017-09-29T17:12:14.266Z,20.00
2017-09-29T17:14:41.096Z,16.73
2017-09-29T17:17:07.452Z,17.80
2017-09-29T17:19:33.871Z,30.83
2017-09-29T17:22:00.341Z,18.20
2017-09-29T17:24:26.811Z,21.80
2017-09-29T17:26:53.271Z,21.70
2017-09-29T17:29:19.653Z,23.37
2017-09-29T17:31:46.092Z,23.20
2017-09-29T17:34:13.285Z,18.00
2017-09-29T17:36:39.715Z,18.97
2017-09-29T17:39:06.298Z,26.13
2017-09-29T17:44:39.121Z,22.83
2017-09-29T17:47:05.625Z,25.03
2017-09-29T17:49:32.020Z,24.63
2017-09-29T17:51:58.431Z,20.23
2017-09-29T17:54:24.935Z,24.47
2017-09-29T17:56:51.360Z,21.33
2017-09-29T17:59:17.902Z,23.80
2017-09-29T18:01:44.333Z,28.33
2017-09-29T18:04:11.497Z,23.73
2017-09-29T18:06:37.990Z,18.50
2017-09-29T18:09:05.134Z,18.33
2017-09-29T18:11:32.274Z,36.53
2017-09-29T18:13:59.095Z,16.43
2017-09-29T18:16:25.588Z,21.40
2017-09-29T18:18:52.070Z,19.03
2017-09-29T18:21:19.452Z,19.13
2017-09-29T18:23:45.826Z,22.10
2017-09-29T18:26:12.200Z,24.40
2017-09-29T18:28:39.470Z,25.63
2017-09-29T18:31:05.894Z,22.80
2017-09-29T18:33:33.101Z,24.27
2017-09-29T18:35:59.568Z,24.13
2017-09-29T18:38:26.746Z,25.10
2017-09-29T18:40:53.283Z,23.90
2017-09-29T18:43:20.587Z,24.63
2017-09-29T18:48:45.707Z,28.47
2017-09-29T18:51:12.849Z,31.70
2017-09-29T18:53:39.235Z,29.73
2017-09-29T18:56:05.729Z,32.70
2017-09-29T18:58:32.206Z,27.97
2017-09-29T19:00:58.739Z,26.80
2017-09-29T19:03:25.177Z,30.10
2017-09-29T19:05:51.643Z,23.00
2017-09-29T19:08:18.058Z,23.60
2017-09-29T19:10:44.495Z,27.87
2017-09-29T19:13:17.894Z,28.33
2017-09-29T19:15:44.351Z,28.80
2017-09-29T19:18:10.890Z,20.57
2017-09-29T19:20:37.353Z,22.03
2017-09-29T19:23:03.829Z,23.70
2017-09-29T19:25:31.033Z,23.13
2017-09-29T19:27:57.489Z,27.27
2017-09-29T19:30:23.908Z,23.40
2017-09-29T19:32:50.656Z,29.50
2017-09-29T19:35:17.146Z,27.27
2017-09-29T19:37:43.666Z,24.57
2017-09-29T19:40:10.078Z,22.83
2017-09-29T19:42:36.815Z,20.10
2017-09-29T19:45:03.251Z,22.07
2017-09-29T19:47:29.686Z,24.73
2017-09-29T19:49:56.929Z,30.50
2017-09-29T19:52:24.047Z,30.03
2017-09-29T19:54:50.579Z,29.10
2017-09-29T19:57:17.019Z,25.43
2017-09-29T19:59:43.479Z,24.50
2017-09-29T20:02:10.631Z,24.20
2017-09-29T20:04:37.076Z,27.93
2017-09-29T20:07:03.520Z,24.03
2017-09-29T20:09:29.931Z,22.10
2017-09-29T20:11:56.379Z,27.10
2017-09-29T20:14:22.865Z,24.23
2017-09-29T20:16:49.266Z,27.13
2017-09-29T20:19:15.663Z,23.10
2017-09-29T20:21:42.133Z,24.43
2017-09-29T20:24:08.598Z,27.40
2017-09-29T20:26:35.802Z,25.30
2017-09-29T20:29:02.163Z,25.83
2017-09-29T20:31:28.961Z,21.93
2017-09-29T20:33:55.477Z,30.73
2017-09-29T20:36:22.594Z,23.07
2017-09-29T20:38:48.977Z,27.13
2017-09-29T20:41:15.384Z,25.83
2017-09-29T20:43:42.544Z,28.97
2017-09-29T20:46:08.927Z,26.73
2017-09-29T20:48:35.376Z,21.83
2017-09-29T20:51:01.762Z,22.33
2017-09-29T20:53:28.163Z,27.27
2017-09-29T20:55:54.630Z,27.60
2017-09-29T20:58:21.310Z,28.70
2017-09-29T21:00:48.410Z,26.30
2017-09-29T21:03:15.502Z,37.97
2017-09-29T21:05:41.866Z,31.90
2017-09-29T21:08:08.226Z,39.83
2017-09-29T21:10:34.616Z,27.13
2017-09-29T21:13:00.981Z,26.30
2017-09-29T21:15:28.165Z,29.43
2017-09-29T21:17:54.521Z,27.77
2017-09-29T21:20:20.874Z,31.43
2017-09-29T21:22:47.212Z,29.00
2017-09-29T21:25:13.910Z,36.33
2017-09-29T21:27:40.278Z,29.50
2017-09-29T21:30:07.455Z,26.17
2017-09-29T21:32:33.990Z,30.03
2017-09-29T21:35:02.173Z,33.20
2017-09-29T21:37:28.521Z,28.27
2017-09-29T21:39:55.637Z,29.63
2017-09-29T21:42:22.049Z,31.17
2017-09-29T21:44:48.419Z,34.83
2017-09-29T21:47:22.922Z,29.57
2017-09-29T21:52:50.626Z,29.80
2017-09-29T21:55:17.792Z,33.33
2017-09-29T21:57:44.136Z,25.20
2017-09-29T22:00:11.943Z,27.10
2017-09-29T22:02:38.468Z,31.83
2017-09-29T22:05:04.844Z,30.10
2017-09-29T22:07:31.269Z,32.50
2017-09-29T22:09:57.656Z,29.07
2017-09-29T22:12:24.022Z,31.50
2017-09-29T22:14:51.085Z,31.73
2017-09-29T22:17:17.914Z,27.17
2017-09-29T22:19:44.982Z,34.93
2017-09-29T22:22:11.327Z,29.20
2017-09-29T22:24:37.690Z,31.77
2017-09-29T22:27:04.089Z,38.33
2017-09-29T22:29:30.462Z,44.43
2017-09-29T22:31:57.171Z,28.60
2017-09-29T22:34:23.551Z,37.17
2017-09-29T22:36:49.906Z,37.20
2017-09-29T22:39:16.324Z,33.83
2017-09-29T22:41:42.678Z,37.87
2017-09-29T22:44:09.076Z,32.67
2017-09-29T22:46:35.465Z,32.20
2017-09-29T22:49:02.211Z,33.47
2017-09-29T22:51:29.300Z,28.67
2017-09-29T22:53:55.650Z,34.23
2017-09-29T22:56:22.054Z,32.33
2017-09-29T22:58:48.420Z,35.50
2017-09-29T23:01:14.808Z,30.03
2017-09-29T23:03:41.212Z,31.67
2017-09-29T23:06:07.655Z,31.53
2017-09-29T23:08:34.903Z,31.10
2017-09-29T23:11:01.348Z,32.23
2017-09-29T23:13:27.741Z,36.60
2017-09-29T23:15:54.111Z,33.27
2017-09-29T23:18:20.508Z,30.63
2017-09-29T23:20:46.857Z,32.23
2017-09-29T23:23:13.238Z,29.67
2017-09-29T23:25:39.659Z,29.70
2017-09-29T23:28:05.998Z,32.40
2017-09-29T23:30:32.478Z,30.77
2017-09-29T23:32:59.656Z,31.47
2017-09-29T23:35:26.862Z,29.57
2017-09-29T23:37:53.219Z,27.57
2017-09-29T23:40:19.609Z,28.47
2017-09-29T23:42:45.953Z,28.13
2017-09-29T23:45:12.312Z,35.70
2017-09-29T23:47:38.688Z,33.83
2017-09-29T23:50:05.032Z,40.07
2017-09-29T23:52:31.660Z,34.67
2017-09-29T23:54:57.981Z,26.63
2017-09-29T23:57:24.366Z,30.03
2017-09-29T23:59:51.994Z,25.20
